sensor_id;sensor_type;location;lat;lon;timestamp;temperature;humidity
31113;DHT22;17763;48.730;9.136;2023-12-14T00:02:09;6.20;99.90
31113;DHT22;17763;48.730;9.136;2023-12-14T00:04:35;6.30;99.90
31113;DHT22;17763;48.730;9.136;2023-12-14T00:07:03;6.30;99.90
31113;DHT22;17763;48.730;9.136;2023-12-14T00:09:28;6.30;99.90
31113;DHT22;17763;48.730;9.136;2023-12-14T00:11:54;6.30;99.90
31113;DHT22;17763;48.730;9.136;2023-12-14T00:14:22;6.30;99.90
31113;DHT22;17763;48.730;9.136;2023-12-14T00:16:47;6.30;99.90
31113;DHT22;17763;48.730;9.136;2023-12-14T00:19:14;6.30;99.90
31113;DHT22;17763;48.730;9.136;2023-12-14T00:21:42;6.30;99.90
31113;DHT22;17763;48.730;9.136;2023-12-14T00:24:08;6.30;99.90
31113;DHT22;17763;48.730;9.136;2023-12-14T00:26:36;6.30;99.90
31113;DHT22;17763;48.730;9.136;2023-12-14T00:29:02;6.30;99.90
31113;DHT22;17763;48.730;9.136;2023-12-14T00:31:27;6.30;99.90
31113;DHT22;17763;48.730;9.136;2023-12-14T00:33:55;6.30;99.90
31113;DHT22;17763;48.730;9.136;2023-12-14T00:36:23;6.30;99.90
31113;DHT22;17763;48.730;9.136;2023-12-14T00:38:49;6.30;99.90
31113;DHT22;17763;48.730;9.136;2023-12-14T00:41:14;6.20;99.90
31113;DHT22;17763;48.730;9.136;2023-12-14T00:43:40;6.20;99.90
31113;DHT22;17763;48.730;9.136;2023-12-14T00:46:08;6.30;99.90
31113;DHT22;17763;48.730;9.136;2023-12-14T00:48:37;6.30;99.90
31113;DHT22;17763;48.730;9.136;2023-12-14T00:51:02;6.30;99.90
31113;DHT22;17763;48.730;9.136;2023-12-14T00:53:28;6.30;99.90
31113;DHT22;17763;48.730;9.136;2023-12-14T00:55:56;6.20;99.90
31113;DHT22;17763;48.730;9.136;2023-12-14T00:58:22;6.20;99.90
31113;DHT22;17763;48.730;9.136;2023-12-14T01:00:47;6.10;99.90
31113;DHT22;17763;48.730;9.136;2023-12-14T01:03:13;6.00;99.90
31113;DHT22;17763;48.730;9.136;2023-12-14T01:05:41;6.00;99.90
31113;DHT22;17763;48.730;9.136;2023-12-14T01:08:09;6.10;99.90
31113;DHT22;17763;48.730;9.136;2023-12-14T01:10:35;6.10;99.90
31113;DHT22;17763;48.730;9.136;2023-12-14T01:13:01;6.10;99.90
31113;DHT22;17763;48.730;9.136;2023-12-14T01:15:26;6.10;99.90
31113;DHT22;17763;48.730;9.136;2023-12-14T01:17:54;6.00;99.90
31113;DHT22;17763;48.730;9.136;2023-12-14T01:20:22;6.10;99.90
31113;DHT22;17763;48.730;9.136;2023-12-14T01:22:48;6.10;99.90
31113;DHT22;17763;48.730;9.136;2023-12-14T01:25:14;6.10;99.90
31113;DHT22;17763;48.730;9.136;2023-12-14T01:27:42;6.10;99.90
31113;DHT22;17763;48.730;9.136;2023-12-14T01:30:08;6.10;99.90
31113;DHT22;17763;48.730;9.136;2023-12-14T01:32:33;6.10;99.90
31113;DHT22;17763;48.730;9.136;2023-12-14T01:35:04;6.10;99.90
31113;DHT22;17763;48.730;9.136;2023-12-14T01:37:32;6.10;99.90
31113;DHT22;17763;48.730;9.136;2023-12-14T01:39:58;6.10;99.90
31113;DHT22;17763;48.730;9.136;2023-12-14T01:42:26;6.10;99.90
31113;DHT22;17763;48.730;9.136;2023-12-14T01:44:52;6.10;99.90
31113;DHT22;17763;48.730;9.136;2023-12-14T01:47:17;6.20;99.90
31113;DHT22;17763;48.730;9.136;2023-12-14T01:49:43;6.20;99.90
31113;DHT22;17763;48.730;9.136;2023-12-14T01:52:08;6.20;99.90
31113;DHT22;17763;48.730;9.136;2023-12-14T01:54:34;6.20;99.90
31113;DHT22;17763;48.730;9.136;2023-12-14T01:57:00;6.10;99.90
31113;DHT22;17763;48.730;9.136;2023-12-14T01:59:25;6.20;99.90
31113;DHT22;17763;48.730;9.136;2023-12-14T02:01:56;6.10;99.90
31113;DHT22;17763;48.730;9.136;2023-12-14T02:04:23;6.10;99.90
31113;DHT22;17763;48.730;9.136;2023-12-14T02:06:49;6.10;99.90
31113;DHT22;17763;48.730;9.136;2023-12-14T02:09:17;6.20;99.90
31113;DHT22;17763;48.730;9.136;2023-12-14T02:11:43;6.10;99.90
31113;DHT22;17763;48.730;9.136;2023-12-14T02:14:13;6.10;99.90
31113;DHT22;17763;48.730;9.136;2023-12-14T02:16:39;6.10;99.90
31113;DHT22;17763;48.730;9.136;2023-12-14T02:19:05;6.10;99.90
31113;DHT22;17763;48.730;9.136;2023-12-14T02:21:30;6.20;99.90
31113;DHT22;17763;48.730;9.136;2023-12-14T02:23:58;6.20;99.90
31113;DHT22;17763;48.730;9.136;2023-12-14T02:26:24;6.20;99.90
31113;DHT22;17763;48.730;9.136;2023-12-14T02:28:52;6.10;99.90
31113;DHT22;17763;48.730;9.136;2023-12-14T02:31:19;6.20;99.90
31113;DHT22;17763;48.730;9.136;2023-12-14T02:33:47;6.20;99.90
31113;DHT22;17763;48.730;9.136;2023-12-14T02:36:13;6.20;99.90
31113;DHT22;17763;48.730;9.136;2023-12-14T02:38:39;6.20;99.90
31113;DHT22;17763;48.730;9.136;2023-12-14T02:41:07;6.10;99.90
31113;DHT22;17763;48.730;9.136;2023-12-14T02:43:32;6.10;99.90
31113;DHT22;17763;48.730;9.136;2023-12-14T02:45:58;6.10;99.90
31113;DHT22;17763;48.730;9.136;2023-12-14T02:48:30;6.10;99.90
31113;DHT22;17763;48.730;9.136;2023-12-14T02:50:56;6.10;99.90
31113;DHT22;17763;48.730;9.136;2023-12-14T02:53:22;6.20;99.90
31113;DHT22;17763;48.730;9.136;2023-12-14T02:55:47;6.10;99.90
31113;DHT22;17763;48.730;9.136;2023-12-14T02:58:13;6.10;99.90
31113;DHT22;17763;48.730;9.136;2023-12-14T03:00:41;6.10;99.90
31113;DHT22;17763;48.730;9.136;2023-12-14T03:03:07;6.10;99.90
31113;DHT22;17763;48.730;9.136;2023-12-14T03:05:34;6.10;99.90
31113;DHT22;17763;48.730;9.136;2023-12-14T03:08:03;6.10;99.90
31113;DHT22;17763;48.730;9.136;2023-12-14T03:10:28;6.10;99.90
31113;DHT22;17763;48.730;9.136;2023-12-14T03:12:54;6.10;99.90
31113;DHT22;17763;48.730;9.136;2023-12-14T03:15:22;6.10;99.90
31113;DHT22;17763;48.730;9.136;2023-12-14T03:17:50;6.10;99.90
31113;DHT22;17763;48.730;9.136;2023-12-14T03:20:15;6.10;99.90
31113;DHT22;17763;48.730;9.136;2023-12-14T03:22:41;6.20;99.90
31113;DHT22;17763;48.730;9.136;2023-12-14T03:25:09;6.20;99.90
31113;DHT22;17763;48.730;9.136;2023-12-14T03:27:35;6.20;99.90
31113;DHT22;17763;48.730;9.136;2023-12-14T03:30:01;6.20;99.90
31113;DHT22;17763;48.730;9.136;2023-12-14T03:32:28;6.20;99.90
31113;DHT22;17763;48.730;9.136;2023-12-14T03:34:54;6.20;99.90
31113;DHT22;17763;48.730;9.136;2023-12-14T03:37:19;6.30;99.90
31113;DHT22;17763;48.730;9.136;2023-12-14T03:39:45;6.30;99.90
31113;DHT22;17763;48.730;9.136;2023-12-14T03:42:11;6.30;99.90
31113;DHT22;17763;48.730;9.136;2023-12-14T03:44:37;6.30;99.90
31113;DHT22;17763;48.730;9.136;2023-12-14T03:47:03;6.30;99.90
31113;DHT22;17763;48.730;9.136;2023-12-14T03:49:29;6.30;99.90
31113;DHT22;17763;48.730;9.136;2023-12-14T03:51:57;6.30;99.90
31113;DHT22;17763;48.730;9.136;2023-12-14T03:54:22;6.20;99.90
31113;DHT22;17763;48.730;9.136;2023-12-14T03:56:48;6.30;99.90
31113;DHT22;17763;48.730;9.136;2023-12-14T03:59:13;6.30;99.90
31113;DHT22;17763;48.730;9.136;2023-12-14T04:01:39;6.30;99.90
31113;DHT22;17763;48.730;9.136;2023-12-14T04:04:05;6.30;99.90
31113;DHT22;17763;48.730;9.136;2023-12-14T04:06:31;6.30;99.90
31113;DHT22;17763;48.730;9.136;2023-12-14T04:08:57;6.30;99.90
31113;DHT22;17763;48.730;9.136;2023-12-14T04:11:24;6.30;99.90
31113;DHT22;17763;48.730;9.136;2023-12-14T04:13:50;6.30;99.90
31113;DHT22;17763;48.730;9.136;2023-12-14T04:16:22;6.30;99.90
31113;DHT22;17763;48.730;9.136;2023-12-14T04:18:48;6.30;99.90
31113;DHT22;17763;48.730;9.136;2023-12-14T04:21:14;6.40;99.90
31113;DHT22;17763;48.730;9.136;2023-12-14T04:23:42;6.40;99.90
31113;DHT22;17763;48.730;9.136;2023-12-14T04:26:07;6.40;99.90
31113;DHT22;17763;48.730;9.136;2023-12-14T04:28:35;6.40;99.90
31113;DHT22;17763;48.730;9.136;2023-12-14T04:31:01;6.40;99.90
31113;DHT22;17763;48.730;9.136;2023-12-14T04:33:29;6.40;99.90
31113;DHT22;17763;48.730;9.136;2023-12-14T04:35:57;6.40;99.90
31113;DHT22;17763;48.730;9.136;2023-12-14T04:38:25;6.40;99.90
31113;DHT22;17763;48.730;9.136;2023-12-14T04:40:50;6.40;99.90
31113;DHT22;17763;48.730;9.136;2023-12-14T04:43:16;6.40;99.90
31113;DHT22;17763;48.730;9.136;2023-12-14T04:45:42;6.40;99.90
31113;DHT22;17763;48.730;9.136;2023-12-14T04:48:07;6.40;99.90
31113;DHT22;17763;48.730;9.136;2023-12-14T04:50:33;6.40;99.90
31113;DHT22;17763;48.730;9.136;2023-12-14T04:52:59;6.40;99.90
31113;DHT22;17763;48.730;9.136;2023-12-14T04:55:27;6.30;99.90
31113;DHT22;17763;48.730;9.136;2023-12-14T04:57:57;6.30;99.90
31113;DHT22;17763;48.730;9.136;2023-12-14T05:00:23;6.30;99.90
31113;DHT22;17763;48.730;9.136;2023-12-14T05:02:51;6.30;99.90
31113;DHT22;17763;48.730;9.136;2023-12-14T05:05:16;6.30;99.90
31113;DHT22;17763;48.730;9.136;2023-12-14T05:07:42;6.40;99.90
31113;DHT22;17763;48.730;9.136;2023-12-14T05:10:08;6.30;99.90
31113;DHT22;17763;48.730;9.136;2023-12-14T05:12:35;6.30;99.90
31113;DHT22;17763;48.730;9.136;2023-12-14T05:15:01;6.40;99.90
31113;DHT22;17763;48.730;9.136;2023-12-14T05:17:26;6.40;99.90
31113;DHT22;17763;48.730;9.136;2023-12-14T05:19:52;6.40;99.90
31113;DHT22;17763;48.730;9.136;2023-12-14T05:22:18;6.40;99.90
31113;DHT22;17763;48.730;9.136;2023-12-14T05:24:46;6.40;99.90
31113;DHT22;17763;48.730;9.136;2023-12-14T05:27:12;6.40;99.90
31113;DHT22;17763;48.730;9.136;2023-12-14T05:29:38;6.40;99.90
31113;DHT22;17763;48.730;9.136;2023-12-14T05:32:03;6.50;99.90
31113;DHT22;17763;48.730;9.136;2023-12-14T05:34:29;6.50;99.90
31113;DHT22;17763;48.730;9.136;2023-12-14T05:36:55;6.50;99.90
31113;DHT22;17763;48.730;9.136;2023-12-14T05:39:23;6.50;99.90
31113;DHT22;17763;48.730;9.136;2023-12-14T05:41:48;6.60;99.90
31113;DHT22;17763;48.730;9.136;2023-12-14T05:44:14;6.50;99.90
31113;DHT22;17763;48.730;9.136;2023-12-14T05:46:46;6.50;99.90
31113;DHT22;17763;48.730;9.136;2023-12-14T05:49:14;6.50;99.90
31113;DHT22;17763;48.730;9.136;2023-12-14T05:51:42;6.50;99.90
31113;DHT22;17763;48.730;9.136;2023-12-14T05:54:08;6.50;99.90
31113;DHT22;17763;48.730;9.136;2023-12-14T05:56:36;6.50;99.90
31113;DHT22;17763;48.730;9.136;2023-12-14T05:59:01;6.40;99.90
31113;DHT22;17763;48.730;9.136;2023-12-14T06:01:27;6.50;99.90
31113;DHT22;17763;48.730;9.136;2023-12-14T06:03:53;6.40;99.90
31113;DHT22;17763;48.730;9.136;2023-12-14T06:06:23;6.40;99.90
31113;DHT22;17763;48.730;9.136;2023-12-14T06:08:51;6.50;99.90
31113;DHT22;17763;48.730;9.136;2023-12-14T06:11:17;6.50;99.90
31113;DHT22;17763;48.730;9.136;2023-12-14T06:13:42;6.50;99.90
31113;DHT22;17763;48.730;9.136;2023-12-14T06:16:10;6.50;99.90
31113;DHT22;17763;48.730;9.136;2023-12-14T06:18:39;6.50;99.90
31113;DHT22;17763;48.730;9.136;2023-12-14T06:21:06;6.50;99.90
31113;DHT22;17763;48.730;9.136;2023-12-14T06:23:32;6.50;99.90
31113;DHT22;17763;48.730;9.136;2023-12-14T06:26:00;6.40;99.90
31113;DHT22;17763;48.730;9.136;2023-12-14T06:28:30;6.50;99.90
31113;DHT22;17763;48.730;9.136;2023-12-14T06:30:56;6.50;99.90
31113;DHT22;17763;48.730;9.136;2023-12-14T06:33:22;6.50;99.90
31113;DHT22;17763;48.730;9.136;2023-12-14T06:35:47;6.50;99.90
31113;DHT22;17763;48.730;9.136;2023-12-14T06:38:13;6.50;99.90
31113;DHT22;17763;48.730;9.136;2023-12-14T06:40:41;6.50;99.90
31113;DHT22;17763;48.730;9.136;2023-12-14T06:43:10;6.50;99.90
31113;DHT22;17763;48.730;9.136;2023-12-14T06:45:38;6.40;99.90
31113;DHT22;17763;48.730;9.136;2023-12-14T06:48:04;6.40;99.90
31113;DHT22;17763;48.730;9.136;2023-12-14T06:50:30;6.40;99.90
31113;DHT22;17763;48.730;9.136;2023-12-14T06:52:55;6.40;99.90
31113;DHT22;17763;48.730;9.136;2023-12-14T06:55:23;6.40;99.90
31113;DHT22;17763;48.730;9.136;2023-12-14T06:57:51;6.40;99.90
31113;DHT22;17763;48.730;9.136;2023-12-14T07:00:19;6.40;99.90
31113;DHT22;17763;48.730;9.136;2023-12-14T07:02:44;6.40;99.90
31113;DHT22;17763;48.730;9.136;2023-12-14T07:05:12;6.50;99.90
31113;DHT22;17763;48.730;9.136;2023-12-14T07:07:38;6.60;99.90
31113;DHT22;17763;48.730;9.136;2023-12-14T07:10:04;6.70;99.90
31113;DHT22;17763;48.730;9.136;2023-12-14T07:12:30;6.70;99.90
31113;DHT22;17763;48.730;9.136;2023-12-14T07:14:57;6.70;99.90
31113;DHT22;17763;48.730;9.136;2023-12-14T07:17:23;6.80;99.90
31113;DHT22;17763;48.730;9.136;2023-12-14T07:19:53;6.70;99.90
31113;DHT22;17763;48.730;9.136;2023-12-14T07:22:21;6.70;99.90
31113;DHT22;17763;48.730;9.136;2023-12-14T07:24:46;6.80;99.90
31113;DHT22;17763;48.730;9.136;2023-12-14T07:27:17;6.80;99.90
31113;DHT22;17763;48.730;9.136;2023-12-14T07:29:45;6.80;99.90
31113;DHT22;17763;48.730;9.136;2023-12-14T07:32:10;6.80;99.90
31113;DHT22;17763;48.730;9.136;2023-12-14T07:34:36;6.80;99.90
31113;DHT22;17763;48.730;9.136;2023-12-14T07:37:06;6.80;99.90
31113;DHT22;17763;48.730;9.136;2023-12-14T07:39:34;6.80;99.90
31113;DHT22;17763;48.730;9.136;2023-12-14T07:42:02;6.80;99.90
31113;DHT22;17763;48.730;9.136;2023-12-14T07:44:30;6.80;99.90
31113;DHT22;17763;48.730;9.136;2023-12-14T07:46:58;6.80;99.90
31113;DHT22;17763;48.730;9.136;2023-12-14T07:49:24;6.80;99.90
31113;DHT22;17763;48.730;9.136;2023-12-14T07:51:55;6.80;99.90
31113;DHT22;17763;48.730;9.136;2023-12-14T07:54:22;6.80;99.90
31113;DHT22;17763;48.730;9.136;2023-12-14T07:56:47;6.80;99.90
31113;DHT22;17763;48.730;9.136;2023-12-14T07:59:15;6.90;99.90
31113;DHT22;17763;48.730;9.136;2023-12-14T08:01:43;6.90;99.90
31113;DHT22;17763;48.730;9.136;2023-12-14T08:04:11;7.00;99.90
31113;DHT22;17763;48.730;9.136;2023-12-14T08:06:37;7.10;99.90
31113;DHT22;17763;48.730;9.136;2023-12-14T08:09:05;7.20;99.90
31113;DHT22;17763;48.730;9.136;2023-12-14T08:11:31;7.20;99.90
31113;DHT22;17763;48.730;9.136;2023-12-14T08:13:57;7.20;99.90
31113;DHT22;17763;48.730;9.136;2023-12-14T08:16:23;7.20;99.90
31113;DHT22;17763;48.730;9.136;2023-12-14T08:18:49;7.20;99.90
31113;DHT22;17763;48.730;9.136;2023-12-14T08:21:17;7.20;99.90
31113;DHT22;17763;48.730;9.136;2023-12-14T08:23:43;7.20;99.90
31113;DHT22;17763;48.730;9.136;2023-12-14T08:26:09;7.20;99.90
31113;DHT22;17763;48.730;9.136;2023-12-14T08:28:37;7.20;99.90
31113;DHT22;17763;48.730;9.136;2023-12-14T08:31:03;7.20;99.90
31113;DHT22;17763;48.730;9.136;2023-12-14T08:33:32;7.20;99.90
31113;DHT22;17763;48.730;9.136;2023-12-14T08:36:00;7.20;99.90
31113;DHT22;17763;48.730;9.136;2023-12-14T08:38:25;7.20;99.90
31113;DHT22;17763;48.730;9.136;2023-12-14T08:40:51;7.20;99.90
31113;DHT22;17763;48.730;9.136;2023-12-14T08:43:17;7.30;99.90
31113;DHT22;17763;48.730;9.136;2023-12-14T08:45:42;7.40;99.90
31113;DHT22;17763;48.730;9.136;2023-12-14T08:48:13;7.30;99.90
31113;DHT22;17763;48.730;9.136;2023-12-14T08:50:38;7.30;99.90
31113;DHT22;17763;48.730;9.136;2023-12-14T08:53:04;7.40;99.90
31113;DHT22;17763;48.730;9.136;2023-12-14T08:55:31;7.40;99.90
31113;DHT22;17763;48.730;9.136;2023-12-14T08:57:57;7.50;99.90
31113;DHT22;17763;48.730;9.136;2023-12-14T09:00:22;7.50;99.90
31113;DHT22;17763;48.730;9.136;2023-12-14T09:02:51;7.60;99.90
31113;DHT22;17763;48.730;9.136;2023-12-14T09:05:18;7.60;99.90
31113;DHT22;17763;48.730;9.136;2023-12-14T09:07:46;7.50;99.90
31113;DHT22;17763;48.730;9.136;2023-12-14T09:10:12;7.50;99.90
31113;DHT22;17763;48.730;9.136;2023-12-14T09:12:42;7.50;99.90
31113;DHT22;17763;48.730;9.136;2023-12-14T09:15:08;7.40;99.90
31113;DHT22;17763;48.730;9.136;2023-12-14T09:17:34;7.40;99.90
31113;DHT22;17763;48.730;9.136;2023-12-14T09:20:00;7.40;99.90
31113;DHT22;17763;48.730;9.136;2023-12-14T09:22:26;7.40;99.90
31113;DHT22;17763;48.730;9.136;2023-12-14T09:24:52;7.40;99.90
31113;DHT22;17763;48.730;9.136;2023-12-14T09:27:18;7.50;99.90
31113;DHT22;17763;48.730;9.136;2023-12-14T09:29:46;7.40;99.90
31113;DHT22;17763;48.730;9.136;2023-12-14T09:32:11;7.50;99.90
31113;DHT22;17763;48.730;9.136;2023-12-14T09:34:37;7.50;99.90
31113;DHT22;17763;48.730;9.136;2023-12-14T09:37:02;7.50;99.90
31113;DHT22;17763;48.730;9.136;2023-12-14T09:39:31;7.60;99.90
31113;DHT22;17763;48.730;9.136;2023-12-14T09:42:04;7.50;99.90
31113;DHT22;17763;48.730;9.136;2023-12-14T09:44:31;7.60;99.90
31113;DHT22;17763;48.730;9.136;2023-12-14T09:46:59;7.60;99.90
31113;DHT22;17763;48.730;9.136;2023-12-14T09:49:32;7.70;99.90
31113;DHT22;17763;48.730;9.136;2023-12-14T09:51:58;7.80;99.90
31113;DHT22;17763;48.730;9.136;2023-12-14T09:54:26;7.80;99.90
31113;DHT22;17763;48.730;9.136;2023-12-14T09:56:54;7.80;99.90
31113;DHT22;17763;48.730;9.136;2023-12-14T09:59:20;7.90;99.90
31113;DHT22;17763;48.730;9.136;2023-12-14T10:01:48;8.00;99.90
31113;DHT22;17763;48.730;9.136;2023-12-14T10:04:15;8.00;99.90
31113;DHT22;17763;48.730;9.136;2023-12-14T10:06:44;8.10;99.90
31113;DHT22;17763;48.730;9.136;2023-12-14T10:09:10;8.10;99.90
31113;DHT22;17763;48.730;9.136;2023-12-14T10:11:39;8.10;99.90
31113;DHT22;17763;48.730;9.136;2023-12-14T10:14:21;8.10;99.90
31113;DHT22;17763;48.730;9.136;2023-12-14T10:16:48;8.20;99.90
31113;DHT22;17763;48.730;9.136;2023-12-14T10:19:14;8.20;99.90
31113;DHT22;17763;48.730;9.136;2023-12-14T10:21:40;8.20;99.90
31113;DHT22;17763;48.730;9.136;2023-12-14T10:24:08;8.20;99.90
31113;DHT22;17763;48.730;9.136;2023-12-14T10:26:33;8.10;99.90
31113;DHT22;17763;48.730;9.136;2023-12-14T10:28:59;8.10;99.90
31113;DHT22;17763;48.730;9.136;2023-12-14T10:31:25;8.10;99.90
31113;DHT22;17763;48.730;9.136;2023-12-14T10:33:51;8.00;99.90
31113;DHT22;17763;48.730;9.136;2023-12-14T10:36:24;8.00;99.90
31113;DHT22;17763;48.730;9.136;2023-12-14T10:38:53;8.00;99.90
31113;DHT22;17763;48.730;9.136;2023-12-14T10:41:20;8.10;99.90
31113;DHT22;17763;48.730;9.136;2023-12-14T10:43:48;8.20;99.90
31113;DHT22;17763;48.730;9.136;2023-12-14T10:46:14;8.40;99.90
31113;DHT22;17763;48.730;9.136;2023-12-14T10:48:40;8.50;99.90
31113;DHT22;17763;48.730;9.136;2023-12-14T10:51:11;8.60;99.90
31113;DHT22;17763;48.730;9.136;2023-12-14T10:53:41;8.60;99.90
31113;DHT22;17763;48.730;9.136;2023-12-14T10:56:12;8.60;99.90
31113;DHT22;17763;48.730;9.136;2023-12-14T10:58:56;8.60;99.90
31113;DHT22;17763;48.730;9.136;2023-12-14T11:01:24;8.60;99.90
31113;DHT22;17763;48.730;9.136;2023-12-14T11:03:55;8.60;99.90
31113;DHT22;17763;48.730;9.136;2023-12-14T11:06:28;8.60;99.90
31113;DHT22;17763;48.730;9.136;2023-12-14T11:08:58;8.60;99.90
31113;DHT22;17763;48.730;9.136;2023-12-14T11:11:28;8.60;99.90
31113;DHT22;17763;48.730;9.136;2023-12-14T11:13:56;8.70;99.90
31113;DHT22;17763;48.730;9.136;2023-12-14T11:16:23;8.80;99.90
31113;DHT22;17763;48.730;9.136;2023-12-14T11:24:35;9.30;99.90
31113;DHT22;17763;48.730;9.136;2023-12-14T11:27:04;9.30;99.90
31113;DHT22;17763;48.730;9.136;2023-12-14T11:29:31;9.30;99.90
31113;DHT22;17763;48.730;9.136;2023-12-14T11:31:58;9.40;99.90
31113;DHT22;17763;48.730;9.136;2023-12-14T11:34:27;9.50;99.90
31113;DHT22;17763;48.730;9.136;2023-12-14T11:36:56;9.50;99.90
31113;DHT22;17763;48.730;9.136;2023-12-14T11:39:22;9.50;99.90
31113;DHT22;17763;48.730;9.136;2023-12-14T11:44:26;9.40;99.90
31113;DHT22;17763;48.730;9.136;2023-12-14T11:46:54;9.30;99.90
31113;DHT22;17763;48.730;9.136;2023-12-14T11:49:25;9.10;99.90
31113;DHT22;17763;48.730;9.136;2023-12-14T11:51:56;9.00;99.90
31113;DHT22;17763;48.730;9.136;2023-12-14T11:54:22;8.90;99.90
31113;DHT22;17763;48.730;9.136;2023-12-14T11:56:49;8.80;99.90
31113;DHT22;17763;48.730;9.136;2023-12-14T11:59:18;8.70;99.90
31113;DHT22;17763;48.730;9.136;2023-12-14T12:02:00;8.60;99.90
31113;DHT22;17763;48.730;9.136;2023-12-14T12:04:27;8.40;99.90
31113;DHT22;17763;48.730;9.136;2023-12-14T12:07:03;8.40;99.90
31113;DHT22;17763;48.730;9.136;2023-12-14T12:09:41;8.30;99.90
31113;DHT22;17763;48.730;9.136;2023-12-14T12:12:11;8.20;99.90
31113;DHT22;17763;48.730;9.136;2023-12-14T12:14:38;8.30;99.90
31113;DHT22;17763;48.730;9.136;2023-12-14T12:17:05;8.30;99.90
31113;DHT22;17763;48.730;9.136;2023-12-14T12:19:35;8.30;99.90
31113;DHT22;17763;48.730;9.136;2023-12-14T12:22:01;8.20;99.90
31113;DHT22;17763;48.730;9.136;2023-12-14T12:24:27;8.20;99.90
31113;DHT22;17763;48.730;9.136;2023-12-14T12:26:57;8.30;99.90
31113;DHT22;17763;48.730;9.136;2023-12-14T12:29:23;8.10;99.90
31113;DHT22;17763;48.730;9.136;2023-12-14T12:31:49;8.00;99.90
31113;DHT22;17763;48.730;9.136;2023-12-14T12:34:15;7.90;99.90
31113;DHT22;17763;48.730;9.136;2023-12-14T12:36:40;7.80;99.90
31113;DHT22;17763;48.730;9.136;2023-12-14T12:39:07;7.70;99.90
31113;DHT22;17763;48.730;9.136;2023-12-14T12:41:32;7.50;99.90
31113;DHT22;17763;48.730;9.136;2023-12-14T12:43:59;7.30;99.90
31113;DHT22;17763;48.730;9.136;2023-12-14T12:46:31;7.30;99.90
31113;DHT22;17763;48.730;9.136;2023-12-14T12:48:57;7.30;99.90
31113;DHT22;17763;48.730;9.136;2023-12-14T12:51:23;7.30;99.90
31113;DHT22;17763;48.730;9.136;2023-12-14T12:53:48;7.20;99.90
31113;DHT22;17763;48.730;9.136;2023-12-14T12:56:14;7.20;99.90
31113;DHT22;17763;48.730;9.136;2023-12-14T12:58:39;7.20;99.90
31113;DHT22;17763;48.730;9.136;2023-12-14T13:01:05;7.10;99.90
31113;DHT22;17763;48.730;9.136;2023-12-14T13:03:33;7.10;99.90
31113;DHT22;17763;48.730;9.136;2023-12-14T13:05:59;7.10;99.90
31113;DHT22;17763;48.730;9.136;2023-12-14T13:08:25;7.10;99.90
31113;DHT22;17763;48.730;9.136;2023-12-14T13:10:50;7.10;99.90
31113;DHT22;17763;48.730;9.136;2023-12-14T13:13:17;7.10;99.90
31113;DHT22;17763;48.730;9.136;2023-12-14T13:15:43;7.00;99.90
31113;DHT22;17763;48.730;9.136;2023-12-14T13:18:09;7.00;99.90
31113;DHT22;17763;48.730;9.136;2023-12-14T13:20:35;6.90;99.90
31113;DHT22;17763;48.730;9.136;2023-12-14T13:23:01;6.90;99.90
31113;DHT22;17763;48.730;9.136;2023-12-14T13:25:26;6.90;99.90
31113;DHT22;17763;48.730;9.136;2023-12-14T13:27:52;6.90;99.90
31113;DHT22;17763;48.730;9.136;2023-12-14T13:30:20;7.00;99.90
31113;DHT22;17763;48.730;9.136;2023-12-14T13:32:48;7.00;99.90
31113;DHT22;17763;48.730;9.136;2023-12-14T13:35:14;7.10;99.90
31113;DHT22;17763;48.730;9.136;2023-12-14T13:37:39;7.10;99.90
31113;DHT22;17763;48.730;9.136;2023-12-14T13:40:05;7.10;99.90
31113;DHT22;17763;48.730;9.136;2023-12-14T13:42:34;7.10;99.90
31113;DHT22;17763;48.730;9.136;2023-12-14T13:45:04;7.10;99.90
31113;DHT22;17763;48.730;9.136;2023-12-14T13:47:30;7.20;99.90
31113;DHT22;17763;48.730;9.136;2023-12-14T13:49:56;7.10;99.90
31113;DHT22;17763;48.730;9.136;2023-12-14T13:52:22;7.20;99.90
31113;DHT22;17763;48.730;9.136;2023-12-14T13:54:47;7.10;99.90
31113;DHT22;17763;48.730;9.136;2023-12-14T13:57:13;7.20;99.90
31113;DHT22;17763;48.730;9.136;2023-12-14T13:59:38;7.20;99.90
31113;DHT22;17763;48.730;9.136;2023-12-14T14:02:04;7.20;99.90
31113;DHT22;17763;48.730;9.136;2023-12-14T14:04:30;7.20;99.90
31113;DHT22;17763;48.730;9.136;2023-12-14T14:06:55;7.10;99.90
31113;DHT22;17763;48.730;9.136;2023-12-14T14:09:22;7.10;99.90
31113;DHT22;17763;48.730;9.136;2023-12-14T14:11:50;7.10;99.90
31113;DHT22;17763;48.730;9.136;2023-12-14T14:14:16;7.10;99.90
31113;DHT22;17763;48.730;9.136;2023-12-14T14:16:42;7.00;99.90
31113;DHT22;17763;48.730;9.136;2023-12-14T14:19:09;7.00;99.90
31113;DHT22;17763;48.730;9.136;2023-12-14T14:21:37;7.00;99.90
31113;DHT22;17763;48.730;9.136;2023-12-14T14:24:04;7.00;99.90
31113;DHT22;17763;48.730;9.136;2023-12-14T14:26:30;7.00;99.90
31113;DHT22;17763;48.730;9.136;2023-12-14T14:28:56;6.90;99.90
31113;DHT22;17763;48.730;9.136;2023-12-14T14:31:27;7.00;99.90
31113;DHT22;17763;48.730;9.136;2023-12-14T14:33:58;6.90;99.90
31113;DHT22;17763;48.730;9.136;2023-12-14T14:36:23;7.00;99.90
31113;DHT22;17763;48.730;9.136;2023-12-14T14:38:49;6.90;99.90
31113;DHT22;17763;48.730;9.136;2023-12-14T14:41:18;6.90;99.90
31113;DHT22;17763;48.730;9.136;2023-12-14T14:43:43;6.90;99.90
31113;DHT22;17763;48.730;9.136;2023-12-14T14:46:09;6.80;99.90
31113;DHT22;17763;48.730;9.136;2023-12-14T14:48:37;6.80;99.90
31113;DHT22;17763;48.730;9.136;2023-12-14T14:51:06;6.80;99.90
31113;DHT22;17763;48.730;9.136;2023-12-14T14:53:31;6.80;99.90
31113;DHT22;17763;48.730;9.136;2023-12-14T14:55:57;6.80;99.90
31113;DHT22;17763;48.730;9.136;2023-12-14T14:58:25;6.80;99.90
31113;DHT22;17763;48.730;9.136;2023-12-14T15:00:53;6.80;99.90
31113;DHT22;17763;48.730;9.136;2023-12-14T15:03:18;6.80;99.90
31113;DHT22;17763;48.730;9.136;2023-12-14T15:05:45;6.80;99.90
31113;DHT22;17763;48.730;9.136;2023-12-14T15:08:13;6.80;99.90
31113;DHT22;17763;48.730;9.136;2023-12-14T15:10:39;6.80;99.90
31113;DHT22;17763;48.730;9.136;2023-12-14T15:13:07;6.80;99.90
31113;DHT22;17763;48.730;9.136;2023-12-14T15:15:32;6.80;99.90
31113;DHT22;17763;48.730;9.136;2023-12-14T15:17:58;6.90;99.90
31113;DHT22;17763;48.730;9.136;2023-12-14T15:20:24;6.90;99.90
31113;DHT22;17763;48.730;9.136;2023-12-14T15:22:50;7.00;99.90
31113;DHT22;17763;48.730;9.136;2023-12-14T15:25:16;6.90;99.90
31113;DHT22;17763;48.730;9.136;2023-12-14T15:27:43;6.90;99.90
31113;DHT22;17763;48.730;9.136;2023-12-14T15:30:11;6.90;99.90
31113;DHT22;17763;48.730;9.136;2023-12-14T15:32:37;6.90;99.90
31113;DHT22;17763;48.730;9.136;2023-12-14T15:35:03;6.80;99.90
31113;DHT22;17763;48.730;9.136;2023-12-14T15:37:28;6.80;99.90
31113;DHT22;17763;48.730;9.136;2023-12-14T15:39:54;6.80;99.90
31113;DHT22;17763;48.730;9.136;2023-12-14T15:42:20;6.80;99.90
31113;DHT22;17763;48.730;9.136;2023-12-14T15:44:46;6.70;99.90
31113;DHT22;17763;48.730;9.136;2023-12-14T15:47:12;6.70;99.90
31113;DHT22;17763;48.730;9.136;2023-12-14T15:49:38;6.70;99.90
31113;DHT22;17763;48.730;9.136;2023-12-14T15:52:04;6.70;99.90